Latest METARs, TAFs and NOTAMs for LFPB


---------------------------------------------------------------------------
	(OBSERVATIONS)
LFPB 212330Z AUTO 35005KT 7000 NSC 09/07 Q1031 TEMPO 4000 BR=
LFPB 212300Z AUTO 36005KT 8000 NSC 09/07 Q1031 TEMPO 4000 BR=
LFPB 212230Z AUTO 36005KT 8000 NSC 09/07 Q1031 TEMPO 4000 BR=
LFPB 212200Z AUTO 36005KT 9000 NSC 10/07 Q1031 NOSIG=
LFPB 212130Z AUTO 35004KT CAVOK 10/06 Q1031 NOSIG=
---------------------------------------------------------------------------
	(FC)
Sorry, FC For LFPB Not Found
---------------------------------------------------------------------------
	(TERMINAL AREA FORECAST)
LFPB 212300Z 2200/2224 02005KT 6000 NSC
    TEMPO 2200/2209 4000 BR
    PROB30 TEMPO 2202/2208 0400 FG VV///
    BECMG 2208/2210 CAVOK=
---------------------------------------------------------------------------
	(NOTAMS)


LFPB A0442/19 PARKING AREA 1 CLOSED. 30 JAN 09:02 2019 UNTIL
    31 MAY 23:59 2019. CREATED: 30 JAN 09:03 2019

LFPB A0443/19 PARKING J EAST PART CLOSED. 30 JAN 09:07 2019 UNTIL
    31 MAY 23:59 2019. CREATED: 30 JAN 09:07 2019

LFPB A0445/19 TWY W19 CLOSED. 30 JAN 09:24 2019 UNTIL 31 MAY
    23:59 2019. CREATED: 30 JAN 09:24 2019

LFPB A0570/19 ACFT STAND H1 CLOSED. 05 FEB 15:05 2019 UNTIL 31
    MAY 23:59 2019. CREATED: 05 FEB 15:06 2019

LFPB A0571/19 TWY W15 CLOSED. 05 FEB 15:06 2019 UNTIL 31 MAY
    23:59 2019. CREATED: 05 FEB 15:07 2019

LFPB A0704/19 TRIGGER NOTAM - PERM AIRAC AIP AMDT 04/19 WEF 28
    MAR 2019. INSTR SID POGO WEST PN 2F ET PV 2F CHANGED. 28
    MAR 00:00 2019 UNTIL 10 APR 23:59 2019. CREATED: 14 FEB 08:10
    2019

LFPB A1161/19 APRON SIERRA PROHIBITED FOR ACFT WITH WINGSPAN
    MORE THAN 42M. 18 MAR 07:00 2019 UNTIL 31 JUL 22:00 2019.
    CREATED: 16 MAR 08:07 2019

LFPB A1168/19 SPECIAL INSTRUCTIONS ABOUT PARKING AREA G1 AND
    G2: AT ARR: PARALLEL PARKING OR NOSE IN FACING LINE OF CABINS
    SET UP FOR SALON DU BOURGET. ON DEP: TOWING COMPULSORY UNTIL
    PARKING AREA SAFE LINE. 18 MAR 07:00 2019 UNTIL 31 JUL 22:00
    2019. CREATED: 16 MAR 12:43 2019

LFPB A1241/19 TWY U1 AND U2 CLOSED. 24 MAR 09:00 2019 UNTIL 15
    APR 23:00 2019. CREATED: 21 MAR 09:49 2019

LFPB A5530/18 RNAV1 COMPLIANT NAVIGATION EQUIPMENT MANDATORY
    EXC FOR : MEDICAL, STATE AND EMERGENCY FLIGHTS. 15 NOV 16:03
    2018 UNTIL 14 MAY 23:59 2019. CREATED: 15 NOV 16:03 2018

LFPB P0742/19 2 CRANES OPR - RDL 175/0.86NM ARP : PSN : 485718N
    0022636E CRANE 1 : ELEV 340FT, HEIGHT 268FT CRANE 2 : ELEV
    268FT, HEIGHT 202FT LIGHTING : DAY. 05 MAR 10:00 2019 UNTIL
    31 MAY 18:00 2019. CREATED: 05 MAR 10:00 2019

LFPB P2476/18 MOBILE CRANE OPR RDL040/2.7NM ARP LFPB PSN : 490015,07N
    TO 490018,24N AND 0022900,93E TO 0022914,65E ELEV 431FT HEIGHT
    111FT DAY LIGHTED. MON-FRI 0500-1900, 23 OCT 09:48 2018 UNTIL
    29 MAR 19:00 2019. CREATED: 23 OCT 09:49 2018

LFPB P2483/18 TOWER CRANE OPR AT SARCELLES RDL280/2.7NM LFPB
    ARP : PSN : 485839N 0022230E ELEVATION : 404FT HEIGHT : 220FT
    56.3M RADIUS DAY AND NIGHT LIGHTED. 29 OCT 06:00 2018 UNTIL
    29 NOV 17:00 2019. CREATED: 23 OCT 10:13 2018

LFPB P2746/18 2 MOBILE CRANES OPR AT LE THILLAY : AVERAGE PSN
    : 490026N 0022905E 0.1 NM RADIUS RDL266/2.5NM LFPG, RDL037/2.8NM
    LFPB ELEV : 420FT HEIGHT : 95FT LIGHTING : DAY. MON-FRI 0500-1900,
    02 NOV 13:37 2018 UNTIL 29 MAR 19:00 2019. CREATED: 02 NOV
    13:38 2018

LFPB P2752/18 CRANE OPR AT ROISSY EN FRANCE RDL 226/2.6NM ARP
    LFPB : PSN : 485910N 0023037E 55M RADIUS ELEV : 401FT HEIGHT
    : 128FT LIGHTING : DAY/NIGHT. 02 NOV 13:50 2018 UNTIL 30
    NOV 19:00 2019. CREATED: 02 NOV 13:50 2018

LFPB P2756/18 2 MOBILE CRANES OPR AT LE THILLAY : AVERAGE PSN
    : 490026N 0022905E 0.1NM RADIUS RDL266/2.5NM LFPG, RDL037/2.8NM
    LFPB ELEV : 420FT HEIGHT : 95FT LIGHTING : DAY. MON-FRI 0400-1800,
    01 APR 04:00 2019 UNTIL 20 SEP 18:00 2019. CREATED: 02 NOV
    14:02 2018

LFPB V0132/19 [US DOD PROCEDURAL NOTAM] STANDARD INSTRUMENT DEPARTURE
    (SID) AMENDMENT RNAV (GNSS-DME/DME) SID RWY 07, 09, 21 (AGOPA
    2J-2M-2Q, ERIXU 2J-2M-2Q, LATRA 2J-2M-2Q, OKASI 2J-2M-2Q,
    PILUL 2J-2M-2Q). CHG PILUL ROUTE DESCRIPTION TO READ DIRECT
    PB095. REST OF ROUTE UNCHANGED. 01 MAR 13:04 2019 UNTIL 25
    APR 00:01 2019. CREATED: 01 MAR 13:04 2019

---------------------------------------------------------------------------